createdAt,value
2018-08-12T00:02:25.991Z,2.08
2018-08-12T00:04:57.367Z,3.20
2018-08-12T00:07:24.935Z,2.40
2018-08-12T00:09:52.171Z,2.85
2018-08-12T00:12:19.341Z,2.27
2018-08-12T00:14:46.541Z,2.67
2018-08-12T00:17:13.735Z,2.60
2018-08-12T00:19:40.936Z,5.15
2018-08-12T00:22:08.110Z,2.92
2018-08-12T00:24:35.359Z,2.67
2018-08-12T00:27:02.544Z,2.62
2018-08-12T00:29:29.745Z,2.20
2018-08-12T00:31:56.939Z,2.33
2018-08-12T00:34:24.138Z,2.65
2018-08-12T00:36:51.339Z,2.98
2018-08-12T00:39:18.540Z,2.45
2018-08-12T00:41:45.731Z,2.62
2018-08-12T00:44:12.910Z,2.45
2018-08-12T00:46:40.093Z,2.85
2018-08-12T00:49:07.282Z,2.42
2018-08-12T00:51:34.489Z,2.17
2018-08-12T00:54:01.672Z,3.45
2018-08-12T00:56:28.903Z,2.70
2018-08-12T00:58:56.096Z,3.08
2018-08-12T01:01:23.303Z,2.72
2018-08-12T01:03:50.483Z,2.77
2018-08-12T01:06:17.703Z,2.60
2018-08-12T01:08:44.878Z,2.75
2018-08-12T01:11:12.062Z,2.65
2018-08-12T01:13:39.246Z,3.02
2018-08-12T01:16:06.440Z,3.37
2018-08-12T01:18:33.661Z,2.45
2018-08-12T01:21:00.868Z,2.92
2018-08-12T01:23:28.046Z,3.17
2018-08-12T01:25:55.226Z,2.42
2018-08-12T01:28:22.413Z,2.80
2018-08-12T01:30:49.605Z,2.85
2018-08-12T01:33:16.791Z,2.85
2018-08-12T01:35:43.990Z,2.70
2018-08-12T01:38:11.185Z,2.92
2018-08-12T01:40:38.376Z,2.92
2018-08-12T01:43:05.576Z,3.05
2018-08-12T01:45:32.763Z,2.83
2018-08-12T01:47:59.948Z,2.83
2018-08-12T01:50:27.126Z,2.87
2018-08-12T01:52:54.340Z,2.85
2018-08-12T01:55:21.531Z,3.75
2018-08-12T01:57:48.769Z,3.10
2018-08-12T02:00:18.015Z,3.15
2018-08-12T02:02:45.381Z,2.50
2018-08-12T02:05:12.563Z,3.47
2018-08-12T02:07:39.755Z,3.15
2018-08-12T02:10:07.652Z,3.05
2018-08-12T02:12:34.834Z,2.80
2018-08-12T02:15:02.027Z,2.67
2018-08-12T02:17:29.234Z,3.22
2018-08-12T02:19:56.425Z,3.80
2018-08-12T02:22:23.644Z,2.90
2018-08-12T02:24:50.842Z,3.62
2018-08-12T02:27:18.019Z,3.62
2018-08-12T02:29:45.229Z,3.80
2018-08-12T02:32:12.428Z,3.80
2018-08-12T02:34:39.607Z,3.65
2018-08-12T02:37:06.790Z,3.50
2018-08-12T02:39:34.003Z,4.05
2018-08-12T02:42:01.181Z,3.85
2018-08-12T02:44:28.379Z,3.42
2018-08-12T02:46:55.580Z,4.00
2018-08-12T02:49:22.766Z,4.17
2018-08-12T02:51:50.056Z,3.40
2018-08-12T02:54:17.348Z,3.50
2018-08-12T02:56:44.467Z,5.08
2018-08-12T02:59:11.671Z,3.90
2018-08-12T03:01:38.856Z,3.22
2018-08-12T03:04:06.050Z,4.12
2018-08-12T03:06:33.251Z,3.83
2018-08-12T03:09:00.426Z,3.60
2018-08-12T03:11:27.619Z,4.42
2018-08-12T03:13:54.811Z,3.22
2018-08-12T03:16:21.988Z,3.27
2018-08-12T03:18:49.157Z,3.50
2018-08-12T03:21:16.368Z,3.65
2018-08-12T03:23:43.765Z,3.67
2018-08-12T03:26:10.938Z,3.15
2018-08-12T03:28:38.122Z,3.00
2018-08-12T03:31:05.303Z,3.40
2018-08-12T03:33:32.479Z,3.92
2018-08-12T03:35:59.669Z,3.65
2018-08-12T03:38:26.846Z,3.37
2018-08-12T03:40:54.052Z,3.20
2018-08-12T03:43:21.260Z,3.00
2018-08-12T03:45:48.443Z,3.20
2018-08-12T03:48:15.726Z,3.52
2018-08-12T03:50:42.929Z,3.45
2018-08-12T03:53:10.107Z,3.20
2018-08-12T03:55:37.303Z,3.33
2018-08-12T03:58:04.586Z,2.92
2018-08-12T04:00:31.759Z,3.50
2018-08-12T04:02:58.933Z,3.35
2018-08-12T04:05:26.117Z,3.47
2018-08-12T04:07:53.307Z,3.52
2018-08-12T04:10:20.479Z,3.05
2018-08-12T04:12:47.680Z,3.60
2018-08-12T04:15:14.886Z,3.47
2018-08-12T04:17:42.287Z,3.10
2018-08-12T04:20:10.357Z,3.92
2018-08-12T04:22:37.739Z,2.80
2018-08-12T04:25:04.994Z,3.30
2018-08-12T04:27:32.325Z,3.67
2018-08-12T04:29:59.546Z,3.50
2018-08-12T04:32:26.729Z,3.20
2018-08-12T04:34:53.914Z,3.83
2018-08-12T04:37:21.251Z,3.40
2018-08-12T04:39:48.431Z,3.20
2018-08-12T04:42:15.628Z,3.20
2018-08-12T04:44:42.805Z,3.40
2018-08-12T04:47:10.026Z,3.85
2018-08-12T04:49:37.210Z,3.55
2018-08-12T04:52:04.726Z,3.92
2018-08-12T04:54:31.916Z,4.10
2018-08-12T04:56:59.112Z,3.80
2018-08-12T04:59:26.297Z,3.10
2018-08-12T05:01:53.477Z,3.58
2018-08-12T05:04:20.670Z,3.12
2018-08-12T05:06:47.861Z,2.92
2018-08-12T05:09:15.048Z,2.80
2018-08-12T05:11:42.231Z,3.27
2018-08-12T05:14:09.427Z,3.40
2018-08-12T05:16:36.600Z,2.80
2018-08-12T05:19:03.854Z,2.83
2018-08-12T05:21:31.038Z,2.80
2018-08-12T05:23:58.208Z,3.17
2018-08-12T05:26:25.424Z,3.20
2018-08-12T05:28:52.624Z,3.30
2018-08-12T05:31:19.808Z,2.70
2018-08-12T05:33:46.990Z,2.85
2018-08-12T05:36:14.193Z,2.80
2018-08-12T05:38:41.399Z,2.77
2018-08-12T05:41:08.590Z,2.80
2018-08-12T05:43:35.762Z,2.95
2018-08-12T05:46:02.953Z,3.15
2018-08-12T05:48:30.151Z,3.52
2018-08-12T05:50:57.341Z,2.77
2018-08-12T05:53:24.546Z,2.80
2018-08-12T05:55:51.741Z,2.90
2018-08-12T05:58:19.111Z,3.30
2018-08-12T06:00:46.288Z,3.20
2018-08-12T06:03:13.484Z,3.50
2018-08-12T06:05:40.658Z,2.95
2018-08-12T06:08:07.839Z,3.20
2018-08-12T06:10:35.019Z,2.75
2018-08-12T06:13:02.203Z,3.05
2018-08-12T06:15:29.439Z,3.40
2018-08-12T06:17:56.590Z,3.70
2018-08-12T06:20:23.753Z,3.12
2018-08-12T06:22:50.926Z,3.25
2018-08-12T06:25:18.089Z,2.83
2018-08-12T06:27:45.286Z,2.40
2018-08-12T06:30:13.196Z,3.15
2018-08-12T06:32:40.383Z,2.92
2018-08-12T06:35:08.300Z,2.58
2018-08-12T06:37:35.652Z,2.90
2018-08-12T06:40:02.988Z,3.25
2018-08-12T06:42:30.159Z,3.30
2018-08-12T06:44:57.329Z,3.02
2018-08-12T06:47:24.548Z,2.65
2018-08-12T06:49:51.728Z,2.70
2018-08-12T06:52:18.915Z,2.30
2018-08-12T06:54:46.095Z,2.98
2018-08-12T06:57:13.352Z,3.17
2018-08-12T06:59:40.528Z,2.40
2018-08-12T07:02:07.707Z,3.17
2018-08-12T07:04:34.890Z,3.00
2018-08-12T07:07:02.077Z,2.40
2018-08-12T07:09:29.283Z,2.10
2018-08-12T07:11:56.465Z,2.95
2018-08-12T07:14:23.738Z,2.10
2018-08-12T07:16:50.835Z,2.80
2018-08-12T07:19:18.032Z,2.00
2018-08-12T07:21:45.215Z,2.00
2018-08-12T07:24:12.391Z,2.05
2018-08-12T07:26:39.567Z,2.17
2018-08-12T07:29:06.751Z,2.77
2018-08-12T07:31:33.920Z,2.52
2018-08-12T07:34:01.236Z,3.00
2018-08-12T07:36:28.532Z,2.02
2018-08-12T07:38:55.843Z,1.82
2018-08-12T07:41:23.011Z,1.82
2018-08-12T07:43:50.179Z,1.75
2018-08-12T07:46:17.375Z,1.55
2018-08-12T07:48:44.605Z,1.90
2018-08-12T07:51:11.800Z,1.62
2018-08-12T07:53:39.039Z,1.85
2018-08-12T07:56:06.232Z,2.05
2018-08-12T07:58:33.422Z,1.87
2018-08-12T08:01:00.614Z,1.77
2018-08-12T08:03:27.802Z,1.98
2018-08-12T08:05:54.982Z,2.02
2018-08-12T08:08:22.163Z,1.85
2018-08-12T08:10:49.350Z,1.87
2018-08-12T08:13:16.544Z,1.60
2018-08-12T08:15:43.755Z,1.35
2018-08-12T08:18:10.993Z,1.85
2018-08-12T08:20:38.216Z,2.72
2018-08-12T08:23:05.417Z,1.65
2018-08-12T08:25:32.709Z,1.57
2018-08-12T08:27:59.814Z,1.65
2018-08-12T08:30:27.020Z,1.65
2018-08-12T08:32:54.195Z,1.30
2018-08-12T08:35:21.407Z,1.60
2018-08-12T08:37:48.594Z,1.60
2018-08-12T08:40:16.398Z,1.27
2018-08-12T08:42:43.593Z,1.37
2018-08-12T08:45:12.447Z,1.62
2018-08-12T08:47:39.638Z,1.82
2018-08-12T08:50:07.364Z,1.45
2018-08-12T08:52:34.577Z,1.70
2018-08-12T08:55:01.764Z,0.90
2018-08-12T08:57:28.952Z,1.30
2018-08-12T08:59:56.202Z,1.15
2018-08-12T09:02:23.403Z,1.40
2018-08-12T09:04:50.583Z,1.22
2018-08-12T09:07:17.779Z,1.25
2018-08-12T09:09:44.979Z,1.98
2018-08-12T09:12:12.152Z,1.42
2018-08-12T09:14:39.342Z,1.75
2018-08-12T09:17:06.548Z,1.67
2018-08-12T09:19:33.714Z,1.20
2018-08-12T09:22:00.895Z,1.22
2018-08-12T09:24:28.054Z,1.65
2018-08-12T09:26:55.226Z,1.72
2018-08-12T09:29:22.414Z,1.20
2018-08-12T09:31:49.666Z,1.10
2018-08-12T09:34:16.841Z,1.15
2018-08-12T09:36:44.080Z,0.90
2018-08-12T09:39:12.293Z,1.20
2018-08-12T09:41:39.467Z,1.10
2018-08-12T09:44:06.813Z,1.47
2018-08-12T09:46:34.007Z,1.40
2018-08-12T09:49:01.210Z,1.15
2018-08-12T09:51:28.446Z,1.60
2018-08-12T09:53:55.595Z,1.27
2018-08-12T09:56:22.792Z,1.50
2018-08-12T09:58:49.966Z,1.40
2018-08-12T10:01:17.134Z,1.30
2018-08-12T10:03:44.360Z,0.98
2018-08-12T10:06:11.531Z,1.80
2018-08-12T10:08:38.716Z,1.60
2018-08-12T10:11:05.907Z,1.47
2018-08-12T10:13:33.092Z,1.50
2018-08-12T10:16:00.377Z,1.15
2018-08-12T10:18:27.587Z,1.30
2018-08-12T10:20:54.800Z,1.45
2018-08-12T10:23:22.019Z,1.12
2018-08-12T10:25:49.235Z,0.98
2018-08-12T10:28:16.422Z,1.17
2018-08-12T10:30:43.593Z,1.25
2018-08-12T10:33:10.796Z,1.10
2018-08-12T10:35:37.966Z,0.95
2018-08-12T10:38:05.189Z,0.95
2018-08-12T10:40:32.363Z,1.75
2018-08-12T10:42:59.563Z,1.52
2018-08-12T10:45:26.743Z,0.80
2018-08-12T10:47:53.961Z,1.25
2018-08-12T10:50:21.129Z,0.90
2018-08-12T10:52:49.167Z,0.90
2018-08-12T10:55:17.859Z,1.47
2018-08-12T10:57:45.230Z,1.32
2018-08-12T11:00:13.607Z,1.02
2018-08-12T11:02:40.844Z,1.67
2018-08-12T11:05:08.068Z,1.10
2018-08-12T11:07:35.347Z,0.98
2018-08-12T11:10:02.551Z,1.50
2018-08-12T11:12:29.768Z,0.72
2018-08-12T11:14:57.036Z,1.42
2018-08-12T11:17:24.226Z,1.07
2018-08-12T11:19:51.404Z,1.22
2018-08-12T11:22:18.592Z,1.35
2018-08-12T11:24:45.778Z,1.00
2018-08-12T11:27:12.963Z,2.12
2018-08-12T11:29:40.159Z,1.20
2018-08-12T11:32:07.344Z,1.57
2018-08-12T11:34:34.518Z,2.30
2018-08-12T11:37:01.852Z,0.83
2018-08-12T11:39:29.038Z,1.47
2018-08-12T11:41:56.219Z,1.40
2018-08-12T11:44:23.399Z,1.23
2018-08-12T11:46:50.569Z,1.00
2018-08-12T11:49:17.752Z,0.83
2018-08-12T11:51:44.943Z,3.23
2018-08-12T11:54:12.132Z,0.90
2018-08-12T11:56:39.342Z,1.40
2018-08-12T11:59:06.531Z,1.20
2018-08-12T12:01:33.707Z,0.90
2018-08-12T12:04:00.894Z,0.93
2018-08-12T12:06:28.066Z,1.03
2018-08-12T12:08:55.240Z,1.10
2018-08-12T12:11:22.432Z,1.30
2018-08-12T12:13:49.599Z,0.80
2018-08-12T12:16:16.775Z,1.03
2018-08-12T12:18:43.974Z,1.70
2018-08-12T12:21:11.133Z,1.00
2018-08-12T12:23:38.313Z,0.80
2018-08-12T12:26:05.630Z,0.97
2018-08-12T12:28:32.755Z,1.40
2018-08-12T12:30:59.920Z,1.23
2018-08-12T12:33:27.112Z,0.80
2018-08-12T12:35:54.283Z,1.03
2018-08-12T12:38:21.484Z,1.03
2018-08-12T12:40:48.706Z,0.70
2018-08-12T12:43:15.882Z,1.37
2018-08-12T12:45:43.102Z,1.00
2018-08-12T12:48:10.285Z,0.83
2018-08-12T12:50:37.499Z,0.70
2018-08-12T12:53:04.675Z,0.80
2018-08-12T12:55:31.872Z,0.70
2018-08-12T12:57:59.084Z,1.03
2018-08-12T13:00:26.267Z,1.83
2018-08-12T13:02:53.461Z,1.10
2018-08-12T13:05:21.570Z,4.10
2018-08-12T13:07:49.335Z,0.77
2018-08-12T13:10:16.904Z,0.80
2018-08-12T13:12:44.338Z,0.87
2018-08-12T13:15:12.319Z,0.73
2018-08-12T13:17:39.656Z,0.83
2018-08-12T13:20:07.830Z,1.20
2018-08-12T13:22:35.071Z,0.70
2018-08-12T13:25:03.340Z,0.60
2018-08-12T13:27:30.468Z,1.00
2018-08-12T13:29:57.653Z,0.70
2018-08-12T13:32:24.841Z,0.53
2018-08-12T13:34:52.021Z,0.73
2018-08-12T13:37:19.201Z,0.97
2018-08-12T13:39:46.401Z,0.50
2018-08-12T13:42:13.570Z,0.60
2018-08-12T13:44:40.831Z,0.60
2018-08-12T13:47:08.020Z,0.80
2018-08-12T13:49:35.227Z,1.10
2018-08-12T13:52:02.745Z,0.90
2018-08-12T13:54:29.929Z,0.70
2018-08-12T13:56:57.202Z,0.67
2018-08-12T13:59:24.412Z,0.50
2018-08-12T14:01:51.620Z,0.87
2018-08-12T14:04:18.807Z,1.13
2018-08-12T14:06:46.006Z,1.83
2018-08-12T14:09:13.194Z,1.00
2018-08-12T14:11:40.399Z,0.90
2018-08-12T14:14:08.098Z,0.50
2018-08-12T14:16:35.572Z,1.00
2018-08-12T14:19:03.641Z,0.60
2018-08-12T14:21:30.863Z,0.60
2018-08-12T14:23:58.030Z,0.73
2018-08-12T14:26:25.248Z,0.70
2018-08-12T14:28:52.437Z,0.57
2018-08-12T14:31:19.617Z,0.50
2018-08-12T14:33:46.815Z,0.50
2018-08-12T14:36:14.023Z,0.43
2018-08-12T14:38:41.224Z,0.93
2018-08-12T14:41:08.406Z,0.97
2018-08-12T14:43:35.691Z,0.60
2018-08-12T14:46:02.825Z,0.60
2018-08-12T14:48:30.011Z,0.53
2018-08-12T14:50:57.207Z,0.60
2018-08-12T14:53:24.408Z,0.70
2018-08-12T14:55:51.600Z,0.77
2018-08-12T14:58:18.778Z,0.47
2018-08-12T15:00:45.979Z,0.67
2018-08-12T15:03:13.166Z,0.90
2018-08-12T15:05:40.338Z,0.67
2018-08-12T15:08:07.567Z,0.40
2018-08-12T15:10:34.753Z,0.50
2018-08-12T15:13:01.927Z,0.50
2018-08-12T15:15:29.124Z,0.40
2018-08-12T15:17:56.416Z,0.53
2018-08-12T15:20:23.607Z,0.80
2018-08-12T15:22:50.850Z,0.80
2018-08-12T15:25:19.252Z,0.50
2018-08-12T15:27:46.613Z,0.67
2018-08-12T15:30:13.815Z,0.60
2018-08-12T15:32:41.011Z,0.70
2018-08-12T15:35:08.680Z,0.80
2018-08-12T15:37:36.088Z,0.60
2018-08-12T15:40:03.466Z,1.00
2018-08-12T15:42:30.647Z,0.50
2018-08-12T15:44:57.883Z,0.70
2018-08-12T15:47:25.079Z,1.93
2018-08-12T15:49:52.425Z,0.73
2018-08-12T15:52:19.597Z,0.83
2018-08-12T15:54:46.975Z,0.77
2018-08-12T15:57:14.151Z,0.70
2018-08-12T15:59:41.343Z,0.63
2018-08-12T16:02:08.555Z,0.50
2018-08-12T16:04:35.735Z,0.50
2018-08-12T16:07:07.600Z,0.60
2018-08-12T16:09:34.795Z,1.30
2018-08-12T16:12:01.978Z,1.30
2018-08-12T16:14:29.178Z,0.70
2018-08-12T16:16:56.371Z,1.00
2018-08-12T16:19:23.572Z,0.93
2018-08-12T16:21:50.766Z,1.10
2018-08-12T16:24:17.962Z,0.57
2018-08-12T16:26:45.155Z,0.63
2018-08-12T16:29:12.341Z,0.83
2018-08-12T16:31:39.523Z,0.57
2018-08-12T16:34:06.725Z,1.10
2018-08-12T16:36:33.933Z,1.10
2018-08-12T16:39:01.109Z,0.90
2018-08-12T16:41:28.292Z,0.60
2018-08-12T16:43:55.454Z,0.70
2018-08-12T16:46:22.625Z,0.90
2018-08-12T16:48:49.794Z,0.93
2018-08-12T16:51:17.006Z,0.90
2018-08-12T16:53:44.219Z,1.00
2018-08-12T16:56:11.457Z,0.83
2018-08-12T16:58:38.603Z,1.07
2018-08-12T17:01:05.781Z,1.07
2018-08-12T17:03:32.946Z,0.70
2018-08-12T17:06:00.150Z,0.80
2018-08-12T17:08:27.314Z,1.03
2018-08-12T17:10:54.498Z,1.00
2018-08-12T17:13:21.672Z,0.90
2018-08-12T17:15:48.854Z,0.80
2018-08-12T17:18:16.065Z,1.57
2018-08-12T17:20:43.235Z,1.13
2018-08-12T17:23:10.467Z,0.83
2018-08-12T17:25:37.718Z,1.50
2018-08-12T17:28:04.832Z,0.93
2018-08-12T17:30:32.002Z,1.07
2018-08-12T17:32:59.177Z,0.97
2018-08-12T17:35:26.348Z,1.17
2018-08-12T17:37:53.538Z,1.10
2018-08-12T17:40:20.746Z,1.90
2018-08-12T17:42:47.923Z,1.40
2018-08-12T17:45:15.148Z,1.57
2018-08-12T17:47:42.627Z,1.47
2018-08-12T17:50:11.408Z,1.00
2018-08-12T17:52:38.594Z,2.17
2018-08-12T17:55:05.914Z,1.27
2018-08-12T17:57:33.086Z,1.70
2018-08-12T18:00:00.686Z,1.60
2018-08-12T18:02:27.859Z,1.40
2018-08-12T18:04:55.036Z,2.57
2018-08-12T18:07:22.219Z,1.57
2018-08-12T18:09:49.448Z,2.93
2018-08-12T18:12:16.647Z,3.90
2018-08-12T18:14:43.847Z,3.60
2018-08-12T18:17:11.139Z,2.90
2018-08-12T18:19:38.329Z,2.10
2018-08-12T18:22:05.526Z,4.17
2018-08-12T18:24:32.708Z,1.90
2018-08-12T18:27:00.009Z,2.87
2018-08-12T18:29:27.193Z,1.83
2018-08-12T18:31:54.367Z,1.90
2018-08-12T18:34:21.548Z,1.97
2018-08-12T18:36:48.780Z,1.70
2018-08-12T18:39:16.040Z,1.80
2018-08-12T18:41:43.227Z,1.83
2018-08-12T18:44:10.767Z,1.30
2018-08-12T18:46:37.934Z,2.43
2018-08-12T18:49:05.263Z,2.03
2018-08-12T18:51:32.445Z,2.00
2018-08-12T18:53:59.617Z,2.17
2018-08-12T18:56:26.856Z,2.52
2018-08-12T18:58:54.084Z,1.60
2018-08-12T19:01:21.364Z,1.82
2018-08-12T19:03:48.484Z,1.57
2018-08-12T19:06:15.688Z,1.90
2018-08-12T19:08:42.947Z,2.20
2018-08-12T19:11:10.123Z,1.55
2018-08-12T19:13:37.344Z,1.95
2018-08-12T19:16:04.538Z,2.27
2018-08-12T19:18:31.725Z,1.98
2018-08-12T19:20:58.991Z,1.95
2018-08-12T19:23:26.171Z,1.17
2018-08-12T19:25:53.326Z,1.62
2018-08-12T19:28:20.527Z,2.20
2018-08-12T19:30:47.746Z,1.72
2018-08-12T19:33:14.969Z,2.25
2018-08-12T19:35:42.198Z,2.20
2018-08-12T19:38:09.391Z,2.40
2018-08-12T19:40:36.594Z,1.67
2018-08-12T19:43:03.774Z,2.40
2018-08-12T19:45:30.945Z,2.35
2018-08-12T19:47:58.235Z,2.45
2018-08-12T19:50:25.434Z,3.20
2018-08-12T19:52:52.633Z,5.45
2018-08-12T19:55:19.824Z,7.75
2018-08-12T19:57:46.997Z,5.85
2018-08-12T20:00:15.023Z,4.40
2018-08-12T20:02:42.943Z,4.17
2018-08-12T20:05:10.191Z,2.98
2018-08-12T20:07:37.391Z,3.83
2018-08-12T20:10:05.496Z,6.15
2018-08-12T20:12:32.802Z,2.45
2018-08-12T20:14:59.989Z,2.60
2018-08-12T20:17:27.243Z,3.00
2018-08-12T20:19:54.427Z,6.78
2018-08-12T20:22:21.622Z,4.45
2018-08-12T20:24:48.807Z,3.27
2018-08-12T20:27:16.009Z,1.90
2018-08-12T20:29:43.719Z,2.70
2018-08-12T20:32:10.988Z,3.80
2018-08-12T20:34:38.331Z,4.10
2018-08-12T20:37:05.533Z,2.67
2018-08-12T20:39:32.745Z,2.65
2018-08-12T20:41:59.947Z,4.30
2018-08-12T20:44:27.146Z,4.40
2018-08-12T20:46:54.344Z,2.83
2018-08-12T20:49:21.537Z,2.87
2018-08-12T20:51:48.749Z,2.30
2018-08-12T20:54:15.951Z,2.92
2018-08-12T20:56:43.159Z,2.95
2018-08-12T20:59:10.356Z,3.30
2018-08-12T21:01:37.566Z,3.35
2018-08-12T21:04:04.767Z,3.33
2018-08-12T21:06:31.953Z,2.98
2018-08-12T21:08:59.139Z,3.70
2018-08-12T21:11:26.356Z,3.02
2018-08-12T21:13:53.546Z,3.47
2018-08-12T21:16:21.095Z,3.25
2018-08-12T21:18:48.301Z,3.05
2018-08-12T21:21:15.490Z,3.85
2018-08-12T21:23:42.678Z,4.90
2018-08-12T21:26:09.936Z,2.85
2018-08-12T21:28:37.054Z,3.55
2018-08-12T21:31:04.251Z,2.55
2018-08-12T21:33:31.503Z,2.47
2018-08-12T21:35:58.684Z,2.35
2018-08-12T21:38:25.859Z,2.62
2018-08-12T21:40:53.084Z,3.20
2018-08-12T21:43:20.287Z,3.17
2018-08-12T21:45:47.508Z,2.55
2018-08-12T21:48:14.703Z,2.65
2018-08-12T21:50:41.919Z,3.95
2018-08-12T21:53:09.095Z,3.72
2018-08-12T21:55:36.266Z,2.92
2018-08-12T21:58:03.461Z,3.55
2018-08-12T22:00:30.641Z,2.90
2018-08-12T22:02:57.836Z,3.95
2018-08-12T22:05:25.024Z,3.83
2018-08-12T22:07:52.216Z,4.00
2018-08-12T22:10:19.410Z,3.58
2018-08-12T22:12:46.604Z,3.50
2018-08-12T22:15:13.800Z,4.05
2018-08-12T22:17:41.010Z,3.00
2018-08-12T22:20:08.192Z,4.28
2018-08-12T22:22:35.387Z,3.37
2018-08-12T22:25:02.592Z,3.27
2018-08-12T22:27:29.770Z,2.75
2018-08-12T22:29:56.999Z,2.60
2018-08-12T22:32:24.169Z,3.12
2018-08-12T22:34:51.361Z,2.55
2018-08-12T22:37:18.645Z,2.83
2018-08-12T22:39:45.833Z,2.92
2018-08-12T22:42:13.014Z,2.60
2018-08-12T22:44:40.230Z,2.45
2018-08-12T22:47:07.410Z,3.30
2018-08-12T22:49:34.577Z,2.65
2018-08-12T22:52:01.877Z,2.87
2018-08-12T22:54:29.080Z,2.40
2018-08-12T22:56:56.266Z,2.42
2018-08-12T22:59:23.439Z,2.37
2018-08-12T23:01:50.635Z,2.62
2018-08-12T23:04:17.831Z,2.37
2018-08-12T23:06:45.020Z,2.10
2018-08-12T23:09:12.198Z,2.80
2018-08-12T23:11:39.554Z,2.62
2018-08-12T23:14:06.749Z,2.52
2018-08-12T23:16:39.679Z,2.17
2018-08-12T23:19:06.862Z,2.50
2018-08-12T23:21:34.045Z,2.92
2018-08-12T23:24:01.240Z,2.35
2018-08-12T23:26:28.428Z,3.00
2018-08-12T23:28:55.624Z,2.52
2018-08-12T23:31:22.827Z,2.42
2018-08-12T23:33:50.038Z,2.22
2018-08-12T23:36:17.214Z,2.80
2018-08-12T23:38:44.391Z,2.75
2018-08-12T23:41:12.068Z,3.05
2018-08-12T23:43:39.264Z,3.37
2018-08-12T23:46:06.463Z,3.40
2018-08-12T23:48:33.636Z,3.98
2018-08-12T23:51:01.663Z,4.03
2018-08-12T23:53:28.856Z,4.17
2018-08-12T23:55:56.027Z,4.95
2018-08-12T23:58:23.232Z,3.50
